Atwood, Wisconsin
Current Conditions -  °F | °C
As of 6:15 AM on Friday 28 Nov 2014 (Local Time) from KMDZ Reporting Station
Light Snow Light Snow  
Wind Chill: -20°   Ceiling: 3700
Heat Index: -14°   Visibility: 4mi
Dew Point: -16°   Wind: 7mph
Humidity: 84%   Direction: 120°ESE
Pressure: 30.1"   Gusts: NA
Location:  44.9782°N, 90.5368°W
Report Text: KMDZ 281215Z AUTO 12006KT 4SM -SN SCT029 OVC037 M14/M16 A3010 RMK AO2 T11401161
Loading
Personal Weather Stations






























Interactive Weather Map New forecast layout! Learn more

10-Day Weather Forecast

Advertisements
Track Severe Weather on mobile